Time;durP1;ratioP1;P1;durP2;ratioP2;P2;SDS_P1;SDS_P2;PMS_P1;PMS_P2;Temp;Humidity;BMP_temperature;BMP_pressure;BME280_temperature;BME280_humidity;BME280_pressure;Samples;Min_cycle;Max_cycle;Signal;HPM_P1;HPM_P2
2022/05/16 00:02:24;;;;;;;8.60;5.07;;;14.40;90.60;;;;;;4987007;28;20073;-89
2022/05/16 00:04:49;;;;;;;7.68;4.28;;;14.30;90.60;;;;;;4990603;28;20038;-90
2022/05/16 00:07:17;;;;;;;7.07;4.15;;;14.30;90.30;;;;;;5004785;28;20026;-90
2022/05/16 00:09:44;;;;;;;5.95;4.53;;;14.20;91.00;;;;;;4989302;28;20105;-90
2022/05/16 00:12:11;;;;;;;5.75;4.03;;;14.30;91.50;;;;;;4986899;28;20034;-90
2022/05/16 00:14:39;;;;;;;3.97;3.58;;;14.20;91.50;;;;;;4991661;28;20045;-89
2022/05/16 00:17:04;;;;;;;7.53;4.43;;;14.20;92.90;;;;;;4990472;28;20387;-90
2022/05/16 00:19:30;;;;;;;4.32;3.58;;;14.20;93.60;;;;;;5007639;28;20037;-90
2022/05/16 00:21:57;;;;;;;8.02;3.90;;;14.30;92.70;;;;;;4993193;28;20034;-90
2022/05/16 00:24:26;;;;;;;6.20;3.97;;;14.20;93.10;;;;;;4991470;28;20444;-90
2022/05/16 00:26:56;;;;;;;5.75;3.95;;;14.20;92.40;;;;;;4991188;28;20102;-90
2022/05/16 00:29:22;;;;;;;5.68;3.92;;;14.10;94.50;;;;;;4992181;28;20026;-90
2022/05/16 00:31:49;;;;;;;7.07;4.07;;;14.30;92.40;;;;;;4969688;28;20057;-90
2022/05/16 00:34:15;;;;;;;10.63;4.88;;;14.30;92.10;;;;;;4985360;28;20092;-90
2022/05/16 00:36:47;;;;;;;6.72;4.40;;;14.30;93.20;;;;;;4990064;28;20073;-89
2022/05/16 00:39:14;;;;;;;12.00;5.13;;;14.20;93.80;;;;;;4980879;28;20026;-90
2022/05/16 00:41:41;;;;;;;6.90;4.32;;;14.30;94.00;;;;;;4990779;28;20041;-90
2022/05/16 00:44:06;;;;;;;6.28;5.10;;;14.30;94.30;;;;;;4989245;28;20031;-90
2022/05/16 00:46:32;;;;;;;8.38;5.05;;;14.20;94.60;;;;;;5006126;28;20080;-90
2022/05/16 00:49:00;;;;;;;7.20;5.05;;;14.10;94.60;;;;;;4971782;28;20043;-89
2022/05/16 00:51:43;;;;;;;12.02;4.72;;;14.10;94.50;;;;;;4980130;28;20042;-91
2022/05/16 00:54:40;;;;;;;7.88;4.90;;;14.10;95.40;;;;;;5006370;28;20084;-90
2022/05/16 00:57:12;;;;;;;5.95;4.82;;;14.10;95.30;;;;;;4990786;28;20019;-90
2022/05/16 01:00:16;;;;;;;7.75;5.28;;;14.10;95.30;;;;;;4986968;28;20375;-89
2022/05/16 01:05:30;;;;;;;7.90;4.70;;;14.00;95.60;;;;;;5006418;28;20076;-90
2022/05/16 01:08:04;;;;;;;7.72;4.85;;;13.90;95.70;;;;;;4993062;28;20439;-90
2022/05/16 01:10:30;;;;;;;7.22;4.43;;;13.80;96.40;;;;;;4989590;28;20031;-90
2022/05/16 01:12:57;;;;;;;7.30;4.68;;;13.80;97.10;;;;;;4986825;28;20034;-90
2022/05/16 01:15:30;;;;;;;10.38;4.47;;;13.80;97.00;;;;;;4990632;28;20023;-90
2022/05/16 01:17:55;;;;;;;6.40;4.35;;;13.80;96.50;;;;;;4984415;28;20073;-90
2022/05/16 01:20:21;;;;;;;8.75;5.20;;;13.80;98.20;;;;;;4978454;28;20043;-90
2022/05/16 01:22:52;;;;;;;6.88;5.18;;;13.70;97.40;;;;;;4996190;28;20053;-90
2022/05/16 01:25:27;;;;;;;5.78;4.68;;;13.80;95.30;;;;;;5005961;28;20482;-90
2022/05/16 01:27:56;;;;;;;8.50;4.82;;;13.90;94.60;;;;;;4987720;28;20053;-90
2022/05/16 01:30:29;;;;;;;6.68;4.85;;;14.00;94.40;;;;;;4987279;28;20023;-90
2022/05/16 01:32:55;;;;;;;10.18;5.05;;;14.00;94.50;;;;;;4990309;28;20018;-90
2022/05/16 01:35:24;;;;;;;5.57;4.60;;;14.00;96.80;;;;;;4993566;28;20034;-89
2022/05/16 01:40:35;;;;;;;10.80;5.78;;;14.00;96.30;;;;;;4995726;28;20096;-90
2022/05/16 01:43:00;;;;;;;7.45;4.55;;;14.10;95.60;;;;;;4995496;28;20085;-90
2022/05/16 01:45:26;;;;;;;7.30;5.07;;;14.10;95.70;;;;;;4976905;28;20088;-90
2022/05/16 01:47:52;;;;;;;7.47;4.90;;;14.10;96.00;;;;;;4982262;28;20121;-89
2022/05/16 01:50:18;;;;;;;6.72;5.03;;;14.00;96.70;;;;;;4998501;28;20118;-90
2022/05/16 01:52:43;;;;;;;6.40;4.63;;;14.00;97.40;;;;;;4994056;28;20489;-90
2022/05/16 01:55:11;;;;;;;8.85;5.28;;;13.90;96.80;;;;;;4995125;28;20044;-90
2022/05/16 01:57:38;;;;;;;10.80;5.03;;;13.90;95.60;;;;;;4987349;28;20776;-90
2022/05/16 02:00:06;;;;;;;7.15;5.32;;;13.90;97.20;;;;;;4993269;28;20030;-90
2022/05/16 02:02:32;;;;;;;5.97;4.88;;;13.90;96.50;;;;;;4993460;28;20031;-90
2022/05/16 02:04:57;;;;;;;6.68;5.07;;;13.80;97.50;;;;;;4979658;28;20018;-90
2022/05/16 02:07:23;;;;;;;7.05;5.07;;;13.70;96.70;;;;;;4992236;28;20027;-90
2022/05/16 02:09:49;;;;;;;7.18;4.85;;;13.70;98.30;;;;;;4991164;28;20394;-89
2022/05/16 02:12:14;;;;;;;11.48;5.18;;;13.60;98.70;;;;;;5007613;28;20030;-90
2022/05/16 02:14:40;;;;;;;8.50;5.00;;;13.40;99.90;;;;;;4994136;28;20081;-90
2022/05/16 02:17:05;;;;;;;7.90;4.80;;;13.40;99.90;;;;;;4977814;28;20110;-90
2022/05/16 02:19:31;;;;;;;8.85;5.28;;;13.40;99.90;;;;;;5013302;28;20026;-90
2022/05/16 02:24:42;;;;;;;5.93;5.00;;;13.60;99.90;;;;;;5013993;28;20033;-90
2022/05/16 02:27:13;;;;;;;9.98;4.57;;;13.70;99.90;;;;;;5010315;28;20030;-90
2022/05/16 02:29:39;;;;;;;10.27;5.18;;;13.70;99.90;;;;;;5002322;28;20548;-90
2022/05/16 02:32:06;;;;;;;6.32;4.70;;;13.70;98.30;;;;;;4994475;28;20053;-91
2022/05/16 02:34:31;;;;;;;6.47;5.30;;;13.80;98.00;;;;;;5003809;28;20039;-90
2022/05/16 02:36:58;;;;;;;7.53;5.05;;;13.70;99.20;;;;;;4994375;28;20541;-90
2022/05/16 02:39:24;;;;;;;7.53;5.22;;;13.80;98.50;;;;;;4992933;28;20026;-90
2022/05/16 02:41:50;;;;;;;9.52;4.95;;;13.70;97.30;;;;;;4993361;28;20129;-90
2022/05/16 02:44:16;;;;;;;7.53;5.10;;;13.80;97.40;;;;;;4993503;28;20054;-90
2022/05/16 02:46:42;;;;;;;7.10;4.80;;;13.80;99.90;;;;;;5008907;28;20502;-90
2022/05/16 02:49:08;;;;;;;5.78;4.68;;;13.60;99.30;;;;;;4994319;28;20022;-90
2022/05/16 02:51:34;;;;;;;10.65;4.75;;;13.60;99.70;;;;;;4994201;28;20458;-90
2022/05/16 02:54:00;;;;;;;7.88;5.20;;;13.60;98.70;;;;;;4992105;28;20041;-90
2022/05/16 02:56:26;;;;;;;7.35;5.53;;;13.70;97.90;;;;;;4993431;28;20035;-89
2022/05/16 02:58:51;;;;;;;6.75;5.00;;;13.80;97.80;;;;;;5003305;28;20091;-89
2022/05/16 03:01:17;;;;;;;9.07;4.97;;;13.80;97.80;;;;;;5021622;28;20038;-89
2022/05/16 03:03:43;;;;;;;8.70;6.50;;;13.90;97.60;;;;;;5006689;28;20050;-89
2022/05/16 03:06:10;;;;;;;9.95;5.72;;;13.90;97.40;;;;;;4992548;28;20478;-90
2022/05/16 03:08:37;;;;;;;9.57;5.22;;;13.90;98.90;;;;;;4991195;28;20478;-89
2022/05/16 03:11:04;;;;;;;7.72;5.25;;;14.00;98.60;;;;;;4988490;28;20058;-90
2022/05/16 03:13:29;;;;;;;7.85;5.25;;;14.00;98.60;;;;;;4990750;28;20041;-89
2022/05/16 03:15:55;;;;;;;6.55;4.72;;;14.10;98.40;;;;;;4993524;28;20042;-90
2022/05/16 03:18:23;;;;;;;7.97;5.13;;;14.10;97.70;;;;;;4994780;28;20374;-90
2022/05/16 03:20:52;;;;;;;8.00;4.63;;;14.20;97.50;;;;;;4995160;28;20443;-90
2022/05/16 03:23:18;;;;;;;6.60;4.88;;;14.20;97.40;;;;;;4987687;28;20035;-90
2022/05/16 03:25:44;;;;;;;8.15;4.88;;;14.20;96.60;;;;;;4992804;28;20089;-90
2022/05/16 03:28:10;;;;;;;6.57;5.07;;;14.10;99.10;;;;;;4992196;28;20034;-90
2022/05/16 03:30:36;;;;;;;7.75;4.53;;;14.10;99.70;;;;;;4991571;28;20046;-90
2022/05/16 03:33:03;;;;;;;7.78;4.90;;;14.10;99.60;;;;;;5006891;28;20065;-90
2022/05/16 03:35:29;;;;;;;10.20;6.55;;;14.10;99.20;;;;;;5004937;28;20437;-90
2022/05/16 03:37:54;;;;;;;7.32;5.47;;;14.00;98.60;;;;;;4983925;28;20117;-90
2022/05/16 03:43:04;;;;;;;10.65;5.65;;;14.00;99.30;;;;;;5004464;28;20077;-89
2022/05/16 03:45:30;;;;;;;8.25;5.57;;;14.00;99.80;;;;;;5006718;28;20062;-90
2022/05/16 03:47:55;;;;;;;8.50;5.95;;;14.00;99.90;;;;;;5000388;28;20042;-90
2022/05/16 03:50:21;;;;;;;9.35;6.03;;;13.90;99.90;;;;;;5000073;28;20039;-89
2022/05/16 03:52:47;;;;;;;7.68;6.20;;;14.00;99.70;;;;;;5004262;28;20042;-90
2022/05/16 03:55:15;;;;;;;7.75;5.80;;;14.10;99.90;;;;;;5002959;28;20476;-90
2022/05/16 03:57:41;;;;;;;9.25;5.53;;;14.10;99.80;;;;;;4989484;28;20072;-90
2022/05/16 04:00:09;;;;;;;7.38;5.78;;;14.10;99.20;;;;;;4983331;28;20030;-89
2022/05/16 04:02:37;;;;;;;6.07;5.40;;;14.30;98.50;;;;;;4989161;28;20034;-90
2022/05/16 04:05:04;;;;;;;9.10;6.05;;;14.20;99.10;;;;;;4999943;28;20110;-90
2022/05/16 04:07:31;;;;;;;10.27;6.35;;;14.30;97.70;;;;;;4978110;28;20037;-90
2022/05/16 04:09:56;;;;;;;9.90;5.53;;;14.40;97.50;;;;;;4989776;28;20065;-90
2022/05/16 04:12:22;;;;;;;8.35;5.72;;;14.40;98.50;;;;;;4983884;28;20493;-90
2022/05/16 04:14:49;;;;;;;7.40;5.22;;;14.40;99.60;;;;;;4962323;28;20027;-89
2022/05/16 04:17:14;;;;;;;9.77;6.07;;;14.40;99.90;;;;;;4970327;28;20127;-90
2022/05/16 04:19:40;;;;;;;7.90;6.07;;;14.30;99.90;;;;;;4970641;28;20062;-89
2022/05/16 04:22:06;;;;;;;11.70;5.85;;;14.20;99.90;;;;;;4978408;28;20089;-90
2022/05/16 04:24:31;;;;;;;8.10;6.30;;;14.20;99.90;;;;;;4995511;28;20030;-89
2022/05/16 04:26:57;;;;;;;6.82;5.43;;;14.20;99.90;;;;;;4963170;28;20041;-89
2022/05/16 04:29:25;;;;;;;8.27;5.70;;;14.20;99.90;;;;;;4976652;28;20035;-87
2022/05/16 04:31:51;;;;;;;7.97;6.60;;;14.20;99.90;;;;;;4993523;28;20041;-89
2022/05/16 04:34:17;;;;;;;9.40;6.82;;;14.20;99.90;;;;;;4992230;28;20030;-89
2022/05/16 04:36:42;;;;;;;11.98;6.65;;;14.20;99.90;;;;;;4992410;28;20080;-89
2022/05/16 04:39:08;;;;;;;7.50;6.15;;;14.00;99.90;;;;;;4987094;28;20475;-90
2022/05/16 04:44:18;;;;;;;8.65;5.70;;;13.40;99.90;;;;;;5006391;28;20095;-89
2022/05/16 04:46:43;;;;;;;10.27;6.38;;;13.30;99.90;;;;;;4992969;28;20069;-90
2022/05/16 04:49:09;;;;;;;12.65;7.18;;;13.40;99.90;;;;;;5009066;28;20027;-89
2022/05/16 04:51:35;;;;;;;11.13;7.40;;;13.50;99.90;;;;;;4993804;28;20391;-90
2022/05/16 04:54:00;;;;;;;8.70;7.53;;;13.30;99.90;;;;;;5006627;28;20042;-90
2022/05/16 04:56:26;;;;;;;11.13;6.93;;;13.30;99.90;;;;;;4990394;28;20041;-87
2022/05/16 04:58:52;;;;;;;14.05;7.82;;;13.30;99.90;;;;;;5007806;28;20042;-89
2022/05/16 05:01:18;;;;;;;12.85;8.30;;;13.20;99.90;;;;;;4990899;28;20114;-90
2022/05/16 05:03:43;;;;;;;11.90;7.20;;;13.10;99.90;;;;;;4993395;28;20077;-90
2022/05/16 05:06:09;;;;;;;9.32;7.38;;;13.20;99.90;;;;;;4993178;28;20022;-90
2022/05/16 05:08:35;;;;;;;10.48;7.43;;;13.20;99.90;;;;;;4977782;28;20036;-90
2022/05/16 05:16:30;;;;;;;10.40;7.10;;;13.20;99.90;;;;;;4996545;28;20089;-90
2022/05/16 05:18:56;;;;;;;14.65;8.85;;;13.30;99.90;;;;;;4991233;28;20015;-89
2022/05/16 05:21:21;;;;;;;11.45;7.88;;;13.20;99.90;;;;;;4978536;28;20053;-91
2022/05/16 05:23:47;;;;;;;11.73;7.78;;;13.30;99.90;;;;;;4995561;28;20486;-90
2022/05/16 05:26:13;;;;;;;11.30;7.53;;;13.30;99.90;;;;;;5011935;28;20014;-89
2022/05/16 05:28:40;;;;;;;11.93;8.25;;;13.30;99.90;;;;;;5017399;28;20018;-89
2022/05/16 05:31:11;;;;;;;23.27;8.90;;;13.30;99.90;;;;;;5016940;28;20027;-89
2022/05/16 05:33:37;;;;;;;12.32;7.80;;;13.40;99.90;;;;;;5015383;28;20028;-90
2022/05/16 05:36:02;;;;;;;16.02;8.35;;;13.40;99.90;;;;;;4975596;28;20035;-88
2022/05/16 05:38:28;;;;;;;10.48;7.55;;;13.40;99.90;;;;;;4993441;28;20030;-90
2022/05/16 05:40:54;;;;;;;18.13;8.63;;;13.50;99.90;;;;;;4974241;28;20437;-90
2022/05/16 05:43:19;;;;;;;18.08;9.63;;;13.50;99.90;;;;;;4973210;28;20486;-89
2022/05/16 05:45:45;;;;;;;28.23;13.52;;;13.50;99.90;;;;;;4975118;28;20039;-89
2022/05/16 05:48:10;;;;;;;19.73;10.77;;;13.60;99.90;;;;;;4972173;28;20031;-89
2022/05/16 05:50:39;;;;;;;13.93;8.90;;;13.70;99.90;;;;;;4956981;28;20094;-89
2022/05/16 05:53:04;;;;;;;13.82;9.43;;;13.70;99.90;;;;;;4992506;28;20026;-89
2022/05/16 05:55:30;;;;;;;14.50;9.40;;;13.60;99.90;;;;;;4994618;28;20034;-89
2022/05/16 05:57:56;;;;;;;13.15;8.30;;;13.60;99.90;;;;;;5000828;28;20077;-90
2022/05/16 06:00:21;;;;;;;16.40;10.13;;;13.60;99.90;;;;;;4996247;28;20093;-91
2022/05/16 06:02:47;;;;;;;14.77;10.05;;;13.50;99.90;;;;;;4986103;28;20042;-91
2022/05/16 06:05:16;;;;;;;14.70;9.77;;;13.60;99.90;;;;;;4997594;28;20045;-91
2022/05/16 06:07:42;;;;;;;28.63;14.50;;;13.70;99.90;;;;;;4979742;28;20027;-90
2022/05/16 06:10:09;;;;;;;24.05;11.80;;;13.70;99.90;;;;;;4985421;28;20080;-90
2022/05/16 06:12:35;;;;;;;15.70;8.38;;;13.70;99.90;;;;;;4983533;28;20026;-90
2022/05/16 06:15:02;;;;;;;22.80;10.27;;;13.70;99.90;;;;;;4981625;28;20035;-90
2022/05/16 06:17:28;;;;;;;14.77;8.38;;;13.70;99.90;;;;;;4986468;28;20486;-91
2022/05/16 06:19:53;;;;;;;14.77;8.70;;;13.70;99.90;;;;;;4976641;28;20026;-91
2022/05/16 06:22:19;;;;;;;13.60;8.60;;;13.70;99.90;;;;;;4960765;28;20057;-91
2022/05/16 06:27:29;;;;;;;14.88;8.18;;;13.70;99.90;;;;;;4991044;28;20492;-86
2022/05/16 06:29:59;;;;;;;13.27;8.73;;;13.70;99.90;;;;;;4976539;28;20497;-87
2022/05/16 06:32:25;;;;;;;19.63;9.63;;;13.70;99.90;;;;;;4991861;28;20112;-87
2022/05/16 06:34:51;;;;;;;20.65;9.32;;;13.70;99.90;;;;;;4992030;28;20469;-87
2022/05/16 06:37:18;;;;;;;18.02;10.45;;;13.70;99.90;;;;;;4980819;28;20041;-87
2022/05/16 06:39:45;;;;;;;28.23;11.15;;;13.70;99.90;;;;;;4994426;28;20026;-88
2022/05/16 06:42:11;;;;;;;20.33;10.43;;;13.80;99.90;;;;;;4987483;28;20042;-87
2022/05/16 06:44:37;;;;;;;20.80;10.68;;;13.80;99.90;;;;;;4962635;28;20027;-85
2022/05/16 06:47:03;;;;;;;21.73;10.20;;;13.80;99.90;;;;;;4975979;28;20499;-84
2022/05/16 06:49:28;;;;;;;21.42;10.93;;;13.70;99.90;;;;;;4999459;28;20034;-86
2022/05/16 06:51:54;;;;;;;27.73;11.10;;;13.80;99.90;;;;;;4991464;28;20046;-87
2022/05/16 06:54:20;;;;;;;20.08;11.27;;;13.80;99.90;;;;;;4989884;28;20034;-88
2022/05/16 06:56:46;;;;;;;25.98;12.38;;;13.90;99.90;;;;;;4995656;28;20033;-87
2022/05/16 06:59:12;;;;;;;25.30;11.27;;;13.90;99.90;;;;;;4962275;28;20026;-87
2022/05/16 07:01:37;;;;;;;28.90;12.25;;;13.80;99.90;;;;;;4994887;28;20055;-87
2022/05/16 07:04:04;;;;;;;29.10;13.18;;;13.90;99.90;;;;;;4979456;28;20497;-87
2022/05/16 07:06:30;;;;;;;27.85;13.52;;;14.00;99.90;;;;;;4978822;28;20030;-87
2022/05/16 07:08:56;;;;;;;31.80;14.20;;;14.10;99.90;;;;;;4978219;28;20033;-87
2022/05/16 07:11:22;;;;;;;26.00;12.82;;;14.10;99.90;;;;;;5006942;28;20035;-87
2022/05/16 07:13:48;;;;;;;29.95;14.63;;;14.20;99.90;;;;;;5010024;28;20026;-87
2022/05/16 07:16:14;;;;;;;34.80;16.58;;;14.20;99.90;;;;;;4994883;28;20022;-87
2022/05/16 07:18:39;;;;;;;39.72;16.05;;;14.20;99.90;;;;;;4994661;28;20050;-87
2022/05/16 07:21:06;;;;;;;34.78;16.10;;;14.20;99.90;;;;;;4979426;28;20033;-87
2022/05/16 07:23:32;;;;;;;41.15;18.83;;;14.10;99.90;;;;;;4986250;28;20088;-88
2022/05/16 07:28:41;;;;;;;36.72;17.63;;;14.20;99.90;;;;;;4985255;28;20375;-84
2022/05/16 07:31:08;;;;;;;41.38;18.10;;;14.30;99.90;;;;;;4979947;28;20042;-84
2022/05/16 07:33:35;;;;;;;35.80;17.52;;;14.20;99.90;;;;;;4992053;28;20030;-84
2022/05/16 07:36:02;;;;;;;41.30;18.42;;;14.30;99.90;;;;;;4991311;28;20069;-84
2022/05/16 07:38:28;;;;;;;36.38;17.10;;;14.20;99.90;;;;;;4992839;28;20109;-84
2022/05/16 07:40:54;;;;;;;35.63;16.02;;;14.30;99.90;;;;;;4992356;28;20110;-83
2022/05/16 07:43:21;;;;;;;28.83;16.23;;;14.40;99.90;;;;;;4992158;28;20037;-83
2022/05/16 07:45:47;;;;;;;26.25;14.55;;;14.40;99.90;;;;;;5015430;28;20041;-83
2022/05/16 07:48:14;;;;;;;32.03;14.75;;;14.50;99.90;;;;;;4991494;28;20508;-83
2022/05/16 07:50:40;;;;;;;44.42;16.08;;;14.50;99.90;;;;;;4991363;28;20302;-83
2022/05/16 07:53:14;;;;;;;26.58;12.23;;;14.50;99.90;;;;;;4990973;28;20405;-83
2022/05/16 07:55:42;;;;;;;30.77;14.13;;;14.50;99.90;;;;;;4991286;28;20026;-83
2022/05/16 07:58:08;;;;;;;27.40;12.85;;;14.60;99.90;;;;;;4991207;28;20041;-83
2022/05/16 08:00:34;;;;;;;25.92;11.95;;;14.60;99.90;;;;;;4990627;28;20030;-83
2022/05/16 08:02:59;;;;;;;24.42;11.75;;;14.60;99.90;;;;;;4990927;28;20092;-83
2022/05/16 08:05:26;;;;;;;20.23;10.48;;;14.50;99.90;;;;;;4990685;28;20576;-83
2022/05/16 08:10:39;;;;;;;20.55;11.10;;;14.80;99.90;;;;;;5003149;28;20046;-82
2022/05/16 08:13:08;;;;;;;16.08;9.52;;;14.80;99.90;;;;;;4989878;28;20033;-83
2022/05/16 08:15:37;;;;;;;20.13;10.45;;;14.80;99.90;;;;;;4997326;28;20113;-83
2022/05/16 08:18:05;;;;;;;15.98;8.95;;;14.90;99.90;;;;;;4990942;28;20514;-83
2022/05/16 08:20:31;;;;;;;15.63;8.40;;;15.00;99.90;;;;;;4990772;28;20034;-82
2022/05/16 08:22:58;;;;;;;16.70;8.55;;;15.30;99.90;;;;;;4990501;28;20026;-82
2022/05/16 08:25:23;;;;;;;14.68;8.20;;;15.30;99.90;;;;;;4990924;28;20640;-82
2022/05/16 08:27:50;;;;;;;13.73;7.70;;;15.60;99.90;;;;;;5005753;28;20037;-83
2022/05/16 08:30:21;;;;;;;12.25;7.53;;;15.50;99.90;;;;;;4974938;28;20015;-83
2022/05/16 08:32:46;;;;;;;12.63;7.32;;;15.60;99.90;;;;;;4982622;28;20026;-86
2022/05/16 08:35:13;;;;;;;10.85;6.22;;;15.70;99.90;;;;;;4990721;28;20659;-89
2022/05/16 08:40:55;;;;;;;14.68;6.20;;;16.00;99.90;;;;;;5029253;28;20070;-90
2022/05/16 08:44:16;;;;;;;13.70;7.32;;;16.00;99.90;;;;;;5008200;28;20042;-91
2022/05/16 08:46:50;;;;;;;10.07;6.82;;;16.00;99.90;;;;;;4972422;28;20043;-91
2022/05/16 08:49:39;;;;;;;11.85;6.93;;;16.30;99.90;;;;;;5011109;28;20026;-91
2022/05/16 08:52:15;;;;;;;8.02;5.00;;;16.90;99.90;;;;;;4992402;28;20434;-91
2022/05/16 08:54:48;;;;;;;9.98;5.85;;;17.50;99.90;;;;;;5012053;28;20057;-92
2022/05/16 08:57:23;;;;;;;13.20;5.93;;;17.50;99.90;;;;;;4984829;28;20112;-91
2022/05/16 08:59:58;;;;;;;10.30;5.68;;;17.60;99.90;;;;;;4985736;28;20072;-92
2022/05/16 09:02:25;;;;;;;10.27;5.35;;;17.80;99.90;;;;;;5004657;28;20039;-91
2022/05/16 09:05:16;;;;;;;9.35;5.85;;;17.70;99.90;;;;;;4991669;28;20058;-91
2022/05/16 09:07:49;;;;;;;7.68;4.47;;;17.60;99.90;;;;;;4982181;28;20185;-90
2022/05/16 09:10:30;;;;;;;6.63;4.60;;;17.70;99.90;;;;;;4991375;28;20027;-91
2022/05/16 09:13:13;;;;;;;6.97;4.03;;;17.70;99.90;;;;;;4990343;28;20022;-92
2022/05/16 09:15:54;;;;;;;6.60;4.20;;;17.60;99.90;;;;;;4999350;28;20034;-91
2022/05/16 09:18:42;;;;;;;7.38;4.72;;;18.30;99.90;;;;;;4987027;28;20474;-91
2022/05/16 09:21:12;;;;;;;8.45;5.05;;;18.70;99.90;;;;;;5000683;28;20043;-91
2022/05/16 09:23:52;;;;;;;7.47;4.47;;;18.90;99.90;;;;;;4978995;28;20088;-91
2022/05/16 09:26:35;;;;;;;5.93;4.32;;;18.80;99.90;;;;;;5009482;28;20035;-91
2022/05/16 09:29:26;;;;;;;5.68;4.10;;;18.70;99.90;;;;;;4994409;28;20041;-91
2022/05/16 09:31:56;;;;;;;5.53;4.13;;;18.70;99.90;;;;;;4990896;28;20031;-91
2022/05/16 09:34:22;;;;;;;17.33;3.72;;;18.80;99.90;;;;;;4993189;28;20026;-91
2022/05/16 09:36:49;;;;;;;5.25;3.50;;;19.00;99.90;;;;;;4992648;28;20034;-91
2022/05/16 09:39:31;;;;;;;3.92;3.22;;;19.00;99.90;;;;;;4976739;28;20034;-92
2022/05/16 09:42:15;;;;;;;4.97;3.40;;;19.50;99.90;;;;;;4988309;28;20372;-91
2022/05/16 09:44:45;;;;;;;5.78;3.33;;;19.40;99.90;;;;;;4990559;28;20420;-92
2022/05/16 09:47:21;;;;;;;6.93;2.85;;;19.40;99.90;;;;;;4989183;28;20054;-91
2022/05/16 09:50:02;;;;;;;4.88;3.65;;;19.50;99.90;;;;;;4990117;28;20112;-91
2022/05/16 09:52:42;;;;;;;4.63;3.85;;;19.20;99.90;;;;;;4985416;28;20026;-91
2022/05/16 09:55:23;;;;;;;5.18;3.70;;;19.00;99.90;;;;;;4989821;28;20130;-91
2022/05/16 09:57:56;;;;;;;7.00;3.67;;;19.00;99.90;;;;;;4988443;28;20035;-92
2022/05/16 10:00:40;;;;;;;4.85;3.30;;;19.40;99.90;;;;;;4967398;28;20118;-92
2022/05/16 10:03:44;;;;;;;4.90;3.78;;;19.60;99.90;;;;;;5009158;28;20038;-91
2022/05/16 10:06:30;;;;;;;5.13;3.97;;;19.80;99.90;;;;;;4980027;28;20030;-92
2022/05/16 10:08:55;;;;;;;6.40;3.58;;;20.30;99.90;;;;;;4980378;28;20025;-92
2022/05/16 10:11:26;;;;;;;4.78;3.88;;;20.90;99.90;;;;;;5010663;28;20129;-92
2022/05/16 10:13:52;;;;;;;;;;;20.80;99.90;;;;;;4997043;28;20045;-92
2022/05/16 10:16:20;;;;;;;5.40;4.25;;;20.80;99.90;;;;;;4995148;28;19914;-92
2022/05/16 10:19:03;;;;;;;5.57;4.05;;;20.70;99.90;;;;;;4986119;28;20027;-89
2022/05/16 10:21:49;;;;;;;6.53;3.58;;;21.00;99.90;;;;;;5002458;28;20446;-91
2022/05/16 10:24:16;;;;;;;4.20;3.33;;;21.30;98.50;;;;;;4995798;28;20050;-90
2022/05/16 10:26:45;;;;;;;6.95;3.60;;;21.30;98.70;;;;;;4991582;28;20133;-91
2022/05/16 10:29:15;;;;;;;5.43;3.53;;;21.30;99.70;;;;;;4987711;28;20026;-91
2022/05/16 10:34:53;;;;;;;7.25;4.38;;;21.80;96.10;;;;;;4994792;28;20081;-91
2022/05/16 10:37:20;;;;;;;3.90;3.10;;;21.90;84.80;;;;;;4995415;28;20027;-90
2022/05/16 10:39:50;;;;;;;6.43;3.90;;;22.60;90.10;;;;;;4989280;28;20038;-90
2022/05/16 10:42:24;;;;;;;5.03;3.20;;;23.00;81.60;;;;;;4995037;28;20022;-90
2022/05/16 10:45:05;;;;;;;8.15;3.70;;;23.10;75.60;;;;;;4991752;28;20453;-91
2022/05/16 10:47:46;;;;;;;6.10;3.45;;;23.70;76.40;;;;;;4981247;28;20050;-91
2022/05/16 10:50:20;;;;;;;5.28;3.30;;;23.50;70.70;;;;;;4990798;28;20466;-90
2022/05/16 10:53:01;;;;;;;7.93;3.42;;;23.60;70.90;;;;;;4992206;28;20034;-92
2022/05/16 10:55:32;;;;;;;5.07;3.85;;;22.90;70.10;;;;;;5008751;28;20478;-92
2022/05/16 10:58:11;;;;;;;8.73;4.00;;;23.00;71.30;;;;;;5008716;28;20109;-92
2022/05/16 11:01:03;;;;;;;4.22;3.30;;;23.00;68.70;;;;;;5006532;28;20442;-91
2022/05/16 11:03:38;;;;;;;5.95;3.88;;;22.90;73.60;;;;;;5010366;28;20080;-92
2022/05/16 11:06:31;;;;;;;4.13;3.70;;;22.70;79.80;;;;;;4988314;28;20082;-91
2022/05/16 11:09:24;;;;;;;5.80;3.85;;;22.40;78.30;;;;;;4982895;28;20109;-87
2022/05/16 11:12:01;;;;;;;5.38;4.32;;;23.10;75.80;;;;;;5002839;28;20088;-87
2022/05/16 11:14:41;;;;;;;6.30;3.90;;;23.20;73.90;;;;;;4991529;28;20467;-87
2022/05/16 11:17:35;;;;;;;5.30;3.67;;;24.00;73.90;;;;;;4992047;28;20026;-88
2022/05/16 11:20:09;;;;;;;9.10;4.25;;;24.40;67.10;;;;;;4991498;28;20038;-88
2022/05/16 11:22:53;;;;;;;7.53;4.43;;;23.80;70.70;;;;;;4989639;28;20026;-87
2022/05/16 11:25:25;;;;;;;8.25;5.55;;;23.70;75.90;;;;;;4989613;28;20022;-87
2022/05/16 11:28:00;;;;;;;7.65;4.45;;;23.70;70.90;;;;;;4985154;28;20037;-87
2022/05/16 11:30:39;;;;;;;7.63;4.78;;;23.80;71.80;;;;;;4991742;28;20113;-88
2022/05/16 11:33:37;;;;;;;6.45;5.07;;;25.10;66.60;;;;;;4987116;28;20026;-87
2022/05/16 11:36:18;;;;;;;8.15;5.43;;;26.30;61.20;;;;;;5000750;28;20032;-87
2022/05/16 11:38:51;;;;;;;7.28;5.03;;;26.70;59.00;;;;;;4992368;28;20018;-85
2022/05/16 11:41:36;;;;;;;6.75;5.05;;;26.20;59.40;;;;;;4992720;28;20041;-88
2022/05/16 11:44:31;;;;;;;6.82;5.63;;;25.00;63.10;;;;;;5007842;28;20010;-88
2022/05/16 11:47:16;;;;;;;8.85;5.05;;;23.80;68.70;;;;;;4998467;28;20054;-87
2022/05/16 11:49:42;;;;;;;16.80;5.72;;;22.90;79.00;;;;;;4994408;28;20022;-87
2022/05/16 11:52:45;;;;;;;12.32;5.22;;;21.40;99.90;;;;;;4995858;28;20038;-89
2022/05/16 12:01:04;;;;;;;9.35;4.55;;;17.20;99.90;;;;;;4991490;28;20053;-86
2022/05/16 12:04:16;;;;;;;8.52;3.28;;;17.40;99.90;;;;;;4990258;28;20031;-87
2022/05/16 12:06:50;;;;;;;7.35;4.03;;;16.60;99.90;;;;;;4986044;28;20073;-87
2022/05/16 12:09:44;;;;;;;8.25;4.00;;;16.50;99.90;;;;;;4991483;28;20029;-87
2022/05/16 12:12:26;;;;;;;8.90;4.55;;;16.30;99.90;;;;;;4984594;28;20042;-87
2022/05/16 12:15:16;;;;;;;9.07;4.88;;;16.20;99.90;;;;;;4975569;28;20712;-88
2022/05/16 12:18:06;;;;;;;9.15;4.07;;;16.20;99.90;;;;;;4972017;28;20031;-87
2022/05/16 12:20:44;;;;;;;14.93;5.50;;;16.20;99.90;;;;;;4971448;28;20027;-88
2022/05/16 12:23:13;;;;;;;15.23;5.95;;;16.20;99.90;;;;;;4984999;28;20018;-89
2022/05/16 12:25:40;;;;;;;10.15;6.07;;;16.20;99.90;;;;;;4987771;28;20058;-88
2022/05/16 12:28:13;;;;;;;8.73;5.70;;;16.10;99.90;;;;;;4986705;28;20027;-88
2022/05/16 12:30:42;;;;;;;11.15;5.40;;;16.10;99.90;;;;;;4989253;28;20050;-89
2022/05/16 12:33:40;;;;;;;17.60;6.43;;;16.10;99.90;;;;;;4992718;28;20033;-88
2022/05/16 12:36:13;;;;;;;10.23;5.32;;;16.30;99.90;;;;;;4976082;28;20116;-88
2022/05/16 12:38:38;;;;;;;9.05;5.65;;;16.40;99.90;;;;;;4997049;28;20029;-88
2022/05/16 12:41:07;;;;;;;10.25;5.25;;;16.60;99.90;;;;;;4999958;28;20394;-88
2022/05/16 12:43:43;;;;;;;9.40;4.93;;;17.40;99.90;;;;;;4993646;28;20022;-87
2022/05/16 12:46:21;;;;;;;9.98;5.40;;;18.70;99.90;;;;;;4998665;28;20046;-88
2022/05/16 12:49:05;;;;;;;7.95;4.43;;;20.40;99.90;;;;;;4996040;28;20108;-88
2022/05/16 12:51:52;;;;;;;6.43;4.60;;;21.20;99.90;;;;;;4996588;28;20034;-88
2022/05/16 12:55:02;;;;;;;11.80;5.28;;;20.40;99.90;;;;;;5003005;28;20031;-88
2022/05/16 12:57:36;;;;;;;11.13;5.10;;;19.80;99.90;;;;;;4960179;28;20035;-89
2022/05/16 13:00:21;;;;;;;9.95;4.68;;;20.90;99.90;;;;;;5010429;28;20508;-88
2022/05/16 13:02:55;;;;;;;13.98;5.32;;;21.20;99.90;;;;;;4994918;28;20081;-88
2022/05/16 13:05:45;;;;;;;6.55;4.45;;;20.80;99.90;;;;;;4994123;28;20430;-88
2022/05/16 13:08:29;;;;;;;7.57;4.57;;;20.90;97.60;;;;;;4994972;28;20032;-88
2022/05/16 13:11:00;;;;;;;6.63;4.10;;;20.30;99.90;;;;;;4995862;28;20498;-88
2022/05/16 13:13:45;;;;;;;7.43;4.40;;;21.00;96.10;;;;;;5003348;28;20022;-88
2022/05/16 13:16:23;;;;;;;6.10;3.92;;;22.10;99.90;;;;;;4992671;28;20019;-89
2022/05/16 13:18:55;;;;;;;5.43;3.58;;;22.70;92.30;;;;;;4987697;28;20077;-88
2022/05/16 13:21:22;;;;;;;8.18;3.67;;;23.30;81.30;;;;;;4995180;28;20052;-89
2022/05/16 13:23:50;;;;;;;8.98;4.10;;;22.30;95.80;;;;;;4994709;28;20026;-90
2022/05/16 13:29:21;;;;;;;6.78;4.13;;;23.90;94.50;;;;;;4978090;28;20045;-89
2022/05/16 13:31:52;;;;;;;8.40;4.10;;;24.70;77.80;;;;;;4990491;28;20040;-90
2022/05/16 13:34:28;;;;;;;4.35;3.40;;;26.20;62.80;;;;;;5009241;28;20041;-89
2022/05/16 13:36:54;;;;;;;6.70;3.53;;;26.50;59.60;;;;;;5011302;28;20101;-89
2022/05/16 13:39:23;;;;;;;5.90;3.47;;;27.40;58.50;;;;;;4993630;28;20397;-90
2022/05/16 13:42:07;;;;;;;6.78;2.90;;;28.40;54.00;;;;;;4992776;28;20093;-89
2022/05/16 13:44:39;;;;;;;4.90;3.05;;;29.10;52.80;;;;;;5001658;28;20509;-89